Time;durP1;ratioP1;P1;durP2;ratioP2;P2;SDS_P1;SDS_P2;PMS_P1;PMS_P2;Temp;Humidity;BMP_temperature;BMP_pressure;BME280_temperature;BME280_humidity;BME280_pressure;Samples;Min_cycle;Max_cycle;Signal;HPM_P1;HPM_P2
2022/08/11 00:01:45;;;;;;;3.33;1.35;;;;;;;;;;5052679;28;20075;-61
2022/08/11 00:04:12;;;;;;;3.53;1.55;;;;;;;;;;5052622;28;20439;-61
2022/08/11 00:06:39;;;;;;;6.20;1.50;;;;;;;;;;5052649;28;20040;-60
2022/08/11 00:09:11;;;;;;;11.27;1.73;;;;;;;;;;5052329;28;20478;-61
2022/08/11 00:11:47;;;;;;;3.97;1.52;;;;;;;;;;5052532;28;20055;-61
2022/08/11 00:14:21;;;;;;;2.65;1.52;;;;;;;;;;5052610;28;20025;-61
2022/08/11 00:16:59;;;;;;;3.83;1.60;;;;;;;;;;5052448;28;20112;-61
2022/08/11 00:19:34;;;;;;;5.70;1.50;;;;;;;;;;5064604;28;20128;-61
2022/08/11 00:22:00;;;;;;;3.53;1.70;;;;;;;;;;5072503;28;20032;-60
2022/08/11 00:24:33;;;;;;;3.45;1.63;;;;;;;;;;5072184;28;20028;-60
2022/08/11 00:26:59;;;;;;;5.15;1.52;;;;;;;;;;5073782;28;20622;-61
2022/08/11 00:29:25;;;;;;;3.45;1.52;;;;;;;;;;5076335;28;20070;-61
2022/08/11 00:31:52;;;;;;;5.10;1.80;;;;;;;;;;5076261;28;20016;-60
2022/08/11 00:34:25;;;;;;;4.38;1.70;;;;;;;;;;5076460;28;20069;-60
2022/08/11 00:36:56;;;;;;;3.00;1.90;;;;;;;;;;5076036;28;20020;-60
2022/08/11 00:39:23;;;;;;;3.60;1.80;;;;;;;;;;5076306;28;20033;-61
2022/08/11 00:42:17;;;;;;;2.38;1.60;;;;;;;;;;5076132;28;20433;-61
2022/08/11 00:45:05;;;;;;;2.42;1.42;;;;;;;;;;5076148;28;20127;-60
2022/08/11 00:47:30;;;;;;;5.90;1.80;;;;;;;;;;5076096;28;20623;-61
2022/08/11 00:50:24;;;;;;;2.83;1.75;;;;;;;;;;5076025;28;20032;-61
2022/08/11 00:53:04;;;;;;;3.60;1.70;;;;;;;;;;5075845;28;20016;-60
2022/08/11 00:56:07;;;;;;;4.47;1.95;;;;;;;;;;5076157;28;20086;-60
2022/08/11 00:59:00;;;;;;;4.32;1.83;;;;;;;;;;5075874;28;20021;-60
2022/08/11 01:02:04;;;;;;;4.70;1.95;;;;;;;;;;5076020;28;20039;-60
2022/08/11 01:05:03;;;;;;;4.28;1.85;;;;;;;;;;5013714;28;20086;-60
2022/08/11 01:08:01;;;;;;;5.80;1.90;;;;;;;;;;5013690;28;20041;-60
2022/08/11 01:10:45;;;;;;;3.17;1.80;;;;;;;;;;4936249;29;20043;-60
2022/08/11 01:13:38;;;;;;;5.63;1.90;;;;;;;;;;4936266;29;20032;-60
2022/08/11 01:16:25;;;;;;;2.65;1.70;;;;;;;;;;4936147;29;20118;-60
2022/08/11 01:19:28;;;;;;;4.30;1.70;;;;;;;;;;4935887;29;20051;-60
2022/08/11 01:22:22;;;;;;;4.40;1.83;;;;;;;;;;4935783;29;20576;-60
2022/08/11 01:25:12;;;;;;;3.00;1.70;;;;;;;;;;4936134;29;20062;-61
2022/08/11 01:28:28;;;;;;;3.38;1.67;;;;;;;;;;4935966;29;20142;-60
2022/08/11 01:31:25;;;;;;;3.67;1.80;;;;;;;;;;4935943;29;20043;-60
2022/08/11 01:34:07;;;;;;;4.10;1.70;;;;;;;;;;4935752;29;20126;-60
2022/08/11 01:36:50;;;;;;;4.95;2.00;;;;;;;;;;4935584;29;20028;-60
2022/08/11 01:39:52;;;;;;;3.08;1.77;;;;;;;;;;4934664;29;20032;-60
2022/08/11 01:45:40;;;;;;;5.88;1.90;;;;;;;;;;4974204;28;20118;-60
2022/08/11 01:48:21;;;;;;;3.15;1.92;;;;;;;;;;5058385;28;20043;-61
2022/08/11 01:50:50;;;;;;;4.40;2.20;;;;;;;;;;5074718;28;20024;-60
2022/08/11 01:53:18;;;;;;;6.20;2.05;;;;;;;;;;5074910;28;20029;-61
2022/08/11 01:55:56;;;;;;;3.22;2.03;;;;;;;;;;5074993;28;20067;-61
2022/08/11 01:58:43;;;;;;;4.38;2.10;;;;;;;;;;5074906;28;20035;-61
2022/08/11 02:01:26;;;;;;;8.18;2.08;;;;;;;;;;5074615;28;20054;-61
2022/08/11 02:04:15;;;;;;;2.92;1.95;;;;;;;;;;5074308;28;20028;-61
2022/08/11 02:06:54;;;;;;;4.88;1.90;;;;;;;;;;5012573;28;20034;-60
2022/08/11 02:09:54;;;;;;;5.70;2.10;;;;;;;;;;5012729;28;20105;-61
2022/08/11 02:12:49;;;;;;;6.13;2.15;;;;;;;;;;5012633;28;20049;-60
2022/08/11 02:15:28;;;;;;;7.72;1.85;;;;;;;;;;5012695;28;20113;-61
2022/08/11 02:23:38;;;;;;;4.97;2.10;;;;;;;;;;5012500;28;20046;-61
2022/08/11 02:24:16;;;;;;;6.82;2.05;;;;;;;;;;5012587;28;20080;-61
2022/08/11 02:26:52;;;;;;;8.38;2.13;;;;;;;;;;5012349;28;20038;-61
2022/08/11 02:29:42;;;;;;;3.78;1.83;;;;;;;;;;5012405;28;20029;-61
2022/08/11 02:35:14;;;;;;;6.13;2.20;;;;;;;;;;5012518;28;20080;-61
2022/08/11 02:37:54;;;;;;;4.13;2.00;;;;;;;;;;5012328;28;20065;-61
2022/08/11 02:40:40;;;;;;;4.15;1.98;;;;;;;;;;5012290;28;20117;-61
2022/08/11 02:43:26;;;;;;;5.32;1.80;;;;;;;;;;4954240;28;20042;-60
2022/08/11 02:46:16;;;;;;;3.50;1.80;;;;;;;;;;5011947;28;20052;-61
2022/08/11 02:52:13;;;;;;;4.97;2.15;;;;;;;;;;4953442;29;20054;-60
2022/08/11 02:54:57;;;;;;;4.28;2.20;;;;;;;;;;4953505;29;20035;-61
2022/08/11 02:57:48;;;;;;;5.65;2.40;;;;;;;;;;4953551;29;20528;-61
2022/08/11 03:00:16;;;;;;;9.90;2.55;;;;;;;;;;4953275;29;20040;-61
2022/08/11 03:03:05;;;;;;;11.38;4.47;;;;;;;;;;4953185;29;20046;-61
2022/08/11 03:05:48;;;;;;;9.35;2.85;;;;;;;;;;4953535;29;20130;-60
2022/08/11 03:08:34;;;;;;;12.88;4.80;;;;;;;;;;4953385;29;20050;-61
2022/08/11 03:17:14;;;;;;;;;;;;;;;;;;4953592;29;20180;-61
2022/08/11 03:19:52;;;;;;;4.30;2.17;;;;;;;;;;4963422;28;19917;-61
2022/08/11 03:22:21;;;;;;;5.72;2.40;;;;;;;;;;4991634;28;20065;-61
2022/08/11 03:25:01;;;;;;;4.80;2.03;;;;;;;;;;4991680;28;20157;-61
2022/08/11 03:27:36;;;;;;;8.15;2.35;;;;;;;;;;4995192;28;20030;-60
2022/08/11 03:30:20;;;;;;;5.95;2.42;;;;;;;;;;5072976;28;20021;-61
2022/08/11 03:36:07;;;;;;;6.72;2.35;;;;;;;;;;5072440;28;20090;-61
2022/08/11 03:39:02;;;;;;;3.97;1.92;;;;;;;;;;5072593;28;20113;-61
2022/08/11 03:42:09;;;;;;;9.82;3.13;;;;;;;;;;5072730;28;20497;-60
2022/08/11 03:44:46;;;;;;;9.07;2.80;;;;;;;;;;5072847;28;20477;-61
2022/08/11 03:47:41;;;;;;;8.20;2.92;;;;;;;;;;5072705;28;20477;-60
2022/08/11 03:50:06;;;;;;;8.02;2.78;;;;;;;;;;5072938;28;20063;-61
2022/08/11 03:52:57;;;;;;;8.90;2.88;;;;;;;;;;5072511;28;20056;-60
2022/08/11 03:55:47;;;;;;;10.82;2.88;;;;;;;;;;5072833;28;20471;-60
2022/08/11 03:58:41;;;;;;;7.40;3.42;;;;;;;;;;5072825;28;20619;-61
2022/08/11 04:01:39;;;;;;;13.90;3.22;;;;;;;;;;5071901;28;20397;-60
2022/08/11 04:04:14;;;;;;;15.85;3.28;;;;;;;;;;5072843;28;20070;-61
2022/08/11 04:06:39;;;;;;;13.20;3.25;;;;;;;;;;5072565;28;20112;-61
2022/08/11 04:09:26;;;;;;;27.42;4.20;;;;;;;;;;5072564;28;20107;-60
2022/08/11 04:12:13;;;;;;;16.73;3.30;;;;;;;;;;5072522;28;20050;-60
2022/08/11 04:18:15;;;;;;;8.77;3.20;;;;;;;;;;5072414;28;20056;-61
2022/08/11 04:21:15;;;;;;;8.07;3.35;;;;;;;;;;5072515;28;20113;-60
2022/08/11 04:24:05;;;;;;;6.25;3.22;;;;;;;;;;5072281;28;20078;-61
2022/08/11 04:27:08;;;;;;;7.50;3.05;;;;;;;;;;5072182;28;20024;-60
2022/08/11 04:30:00;;;;;;;8.20;2.80;;;;;;;;;;5072246;28;20029;-60
2022/08/11 04:32:56;;;;;;;5.35;3.20;;;;;;;;;;5072562;28;20036;-60
2022/08/11 04:35:30;;;;;;;5.40;3.45;;;;;;;;;;5072404;28;20074;-61
2022/08/11 04:38:51;;;;;;;7.05;3.22;;;;;;;;;;5072242;28;20115;-60
2022/08/11 04:41:30;;;;;;;;;;;;;;;;;;5008653;28;20076;-60
2022/08/11 04:44:25;;;;;;;5.25;3.15;;;;;;;;;;5010278;28;19936;-60
2022/08/11 04:46:58;;;;;;;13.20;3.72;;;;;;;;;;5010547;28;20124;-60
2022/08/11 05:01:51;;;;;;;6.07;3.65;;;;;;;;;;5010090;28;20041;-61
2022/08/11 05:08:01;;;;;;;5.82;3.20;;;;;;;;;;5010738;28;20100;-60
2022/08/11 05:10:54;;;;;;;7.10;2.90;;;;;;;;;;5010363;28;20485;-60
2022/08/11 05:36:40;;;;;;;5.82;2.90;;;;;;;;;;5075203;28;20036;-60
2022/08/11 05:58:46;;;;;;;9.75;2.65;;;;;;;;;;5075135;28;20074;-61
2022/08/11 06:01:14;;;;;;;7.28;2.53;;;;;;;;;;5074723;28;20021;-61
2022/08/11 06:06:28;;;;;;;6.05;2.47;;;;;;;;;;5074966;28;20089;-62
2022/08/11 06:08:55;;;;;;;16.05;3.30;;;;;;;;;;5074527;28;20043;-62
2022/08/11 06:11:23;;;;;;;6.80;2.88;;;;;;;;;;5074140;28;20025;-62
2022/08/11 06:13:51;;;;;;;8.63;2.55;;;;;;;;;;5074204;28;20028;-61
2022/08/11 06:16:22;;;;;;;8.68;2.63;;;;;;;;;;5074412;28;20035;-61
2022/08/11 06:18:48;;;;;;;10.40;2.60;;;;;;;;;;5074049;28;20139;-61
2022/08/11 06:21:15;;;;;;;4.95;2.50;;;;;;;;;;5074390;28;20029;-61
2022/08/11 06:23:42;;;;;;;9.23;2.90;;;;;;;;;;5074159;28;20465;-62
2022/08/11 06:26:12;;;;;;;5.05;2.72;;;;;;;;;;5073477;28;20029;-63
2022/08/11 06:28:39;;;;;;;8.63;2.78;;;;;;;;;;5074291;28;20036;-62
2022/08/11 06:31:24;;;;;;;8.20;2.80;;;;;;;;;;5074221;28;20028;-62
2022/08/11 06:33:49;;;;;;;8.00;2.88;;;;;;;;;;5074129;28;20538;-61
2022/08/11 06:36:27;;;;;;;10.15;2.80;;;;;;;;;;5074042;28;20092;-62
2022/08/11 06:38:53;;;;;;;7.53;2.75;;;;;;;;;;5074148;28;20028;-61
2022/08/11 06:41:29;;;;;;;8.43;3.00;;;;;;;;;;5073678;28;20404;-62
2022/08/11 06:44:12;;;;;;;10.88;2.80;;;;;;;;;;5073806;28;20067;-61
2022/08/11 06:47:06;;;;;;;7.70;2.90;;;;;;;;;;5073691;28;20025;-62
2022/08/11 06:52:29;;;;;;;9.77;2.60;;;;;;;;;;5073938;28;20036;-61
2022/08/11 06:55:03;;;;;;;5.30;2.50;;;;;;;;;;5073455;28;20033;-60
2022/08/11 07:00:28;;;;;;;10.82;2.70;;;;;;;;;;5072419;28;20473;-61
2022/08/11 07:03:00;;;;;;;6.82;2.35;;;;;;;;;;5053334;28;20024;-61
2022/08/11 07:05:44;;;;;;;9.10;2.63;;;;;;;;;;5070883;28;20031;-62
2022/08/11 07:16:49;;;;;;;6.57;2.63;;;;;;;;;;5053061;28;20043;-61
2022/08/11 07:30:48;;;;;;;14.57;2.75;;;;;;;;;;5072979;28;20051;-61
2022/08/11 07:33:20;;;;;;;11.57;2.97;;;;;;;;;;5072609;28;20048;-63
2022/08/11 07:35:52;;;;;;;11.55;2.63;;;;;;;;;;5071755;28;20039;-62
2022/08/11 07:38:43;;;;;;;8.65;2.45;;;;;;;;;;5069112;28;20024;-62
2022/08/11 07:41:14;;;;;;;10.38;2.70;;;;;;;;;;5072686;28;20028;-62
2022/08/11 07:43:41;;;;;;;13.35;2.65;;;;;;;;;;5052528;28;20094;-62
2022/08/11 07:54:25;;;;;;;12.05;2.50;;;;;;;;;;5072775;28;20040;-62
2022/08/11 07:56:51;;;;;;;16.30;2.70;;;;;;;;;;5072473;28;20028;-61
2022/08/11 08:18:39;;;;;;;16.85;2.80;;;;;;;;;;5071967;28;20059;-59
2022/08/11 08:21:13;;;;;;;15.00;2.85;;;;;;;;;;5071383;28;20028;-59
2022/08/11 08:23:41;;;;;;;14.63;2.63;;;;;;;;;;5072099;28;20024;-59
2022/08/11 08:26:57;;;;;;;10.30;2.25;;;;;;;;;;5071647;28;20125;-59
2022/08/11 08:31:48;;;;;;;12.52;2.30;;;;;;;;;;5010087;28;20042;-61
2022/08/11 08:34:15;;;;;;;8.90;2.20;;;;;;;;;;5010147;28;20048;-61
2022/08/11 08:36:47;;;;;;;5.18;1.92;;;;;;;;;;5009999;28;20100;-61
2022/08/11 08:39:13;;;;;;;9.25;2.20;;;;;;;;;;5010048;28;20450;-61
2022/08/11 08:41:39;;;;;;;4.68;1.77;;;;;;;;;;5009979;28;20058;-61
2022/08/11 08:44:08;;;;;;;9.18;1.80;;;;;;;;;;5009902;28;20137;-61
2022/08/11 08:46:42;;;;;;;5.35;2.20;;;;;;;;;;5009939;28;20033;-61
2022/08/11 08:49:12;;;;;;;7.13;1.70;;;;;;;;;;5012794;28;20084;-61
2022/08/11 08:51:40;;;;;;;11.95;2.10;;;;;;;;;;5013481;28;20026;-61
2022/08/11 08:54:24;;;;;;;4.53;1.80;;;;;;;;;;5013640;28;20029;-62
2022/08/11 08:56:54;;;;;;;16.75;2.80;;;;;;;;;;5013617;28;20038;-61
2022/08/11 08:59:22;;;;;;;15.07;2.00;;;;;;;;;;5013756;28;20033;-61
2022/08/11 09:01:56;;;;;;;12.60;2.40;;;;;;;;;;5013491;28;20038;-61
2022/08/11 09:04:22;;;;;;;7.70;2.13;;;;;;;;;;5013287;28;20038;-62
2022/08/11 09:06:49;;;;;;;5.78;1.80;;;;;;;;;;5013576;28;20057;-61
2022/08/11 09:09:15;;;;;;;4.22;1.63;;;;;;;;;;5056151;28;20044;-61
2022/08/11 09:11:49;;;;;;;7.18;1.92;;;;;;;;;;5074594;28;20131;-61
2022/08/11 09:14:18;;;;;;;14.15;2.63;;;;;;;;;;5075208;28;20095;-61
2022/08/11 09:16:44;;;;;;;7.60;1.98;;;;;;;;;;5075350;28;20020;-61
2022/08/11 09:19:16;;;;;;;7.22;2.13;;;;;;;;;;5074573;28;20087;-61
2022/08/11 09:21:44;;;;;;;11.48;1.88;;;;;;;;;;5074938;28;20028;-61
2022/08/11 09:26:58;;;;;;;2.90;1.50;;;;;;;;;;5074616;28;20124;-61
2022/08/11 09:29:29;;;;;;;7.60;1.80;;;;;;;;;;5074842;28;20478;-62
2022/08/11 09:31:56;;;;;;;4.75;1.73;;;;;;;;;;5074967;28;20389;-61
2022/08/11 09:34:23;;;;;;;5.65;2.13;;;;;;;;;;5074562;28;20102;-61
2022/08/11 09:42:22;;;;;;;4.70;1.48;;;;;;;;;;5074870;28;20031;-61
2022/08/11 09:44:48;;;;;;;6.63;1.52;;;;;;;;;;5074545;28;20024;-61
2022/08/11 09:47:34;;;;;;;5.00;1.30;;;;;;;;;;5074599;28;20023;-61
2022/08/11 09:50:02;;;;;;;8.05;2.20;;;;;;;;;;5074365;28;20032;-61
2022/08/11 09:52:35;;;;;;;7.78;1.75;;;;;;;;;;5074354;28;20032;-62
2022/08/11 09:55:02;;;;;;;4.88;1.48;;;;;;;;;;5074507;28;20492;-62
2022/08/11 10:00:13;;;;;;;2.95;1.50;;;;;;;;;;5073608;28;20386;-61
2022/08/11 10:02:44;;;;;;;3.90;1.20;;;;;;;;;;5074053;28;20048;-61
2022/08/11 10:08:01;;;;;;;4.40;1.30;;;;;;;;;;5074572;28;20455;-61
2022/08/11 10:10:28;;;;;;;5.05;1.20;;;;;;;;;;5074242;28;20028;-61
2022/08/11 10:13:05;;;;;;;7.72;1.45;;;;;;;;;;5074160;28;20397;-61
2022/08/11 10:15:37;;;;;;;2.33;1.30;;;;;;;;;;5074066;28;20025;-61
2022/08/11 10:21:02;;;;;;;6.45;1.67;;;;;;;;;;5074222;28;20082;-61
2022/08/11 10:33:58;;;;;;;2.97;1.30;;;;;;;;;;5074191;28;20031;-62
2022/08/11 10:34:39;;;;;;;7.70;1.60;;;;;;;;;;5054074;28;20090;-62
2022/08/11 10:37:05;;;;;;;2.85;1.50;;;;;;;;;;5053767;28;20096;-61
2022/08/11 10:39:32;;;;;;;5.20;1.58;;;;;;;;;;5053630;28;20025;-62
2022/08/11 10:44:53;;;;;;;6.28;1.83;;;;;;;;;;5053668;28;20043;-62
2022/08/11 10:47:35;;;;;;;7.68;1.70;;;;;;;;;;5053235;28;20028;-61
2022/08/11 11:01:11;;;;;;;11.65;1.60;;;;;;;;;;5053344;28;20106;-61
2022/08/11 11:03:38;;;;;;;5.63;1.60;;;;;;;;;;5052945;28;20029;-60
2022/08/11 11:06:39;;;;;;;3.67;1.48;;;;;;;;;;5053087;28;20025;-60
2022/08/11 11:09:13;;;;;;;4.70;1.70;;;;;;;;;;4936660;29;20139;-60
2022/08/11 11:18:00;;;;;;;3.40;1.70;;;;;;;;;;4953233;29;20109;-61
2022/08/11 11:20:38;;;;;;;6.93;1.70;;;;;;;;;;4953142;29;20106;-61
2022/08/11 11:23:11;;;;;;;2.50;1.50;;;;;;;;;;4952724;29;20031;-60
2022/08/11 11:26:09;;;;;;;4.47;1.90;;;;;;;;;;4964092;28;20046;-60
2022/08/11 11:28:58;;;;;;;2.08;1.33;;;;;;;;;;4952298;29;20086;-60
2022/08/11 11:31:51;;;;;;;5.95;1.80;;;;;;;;;;4952412;29;20188;-61
2022/08/11 11:34:56;;;;;;;2.65;1.73;;;;;;;;;;4952538;29;20035;-61
2022/08/11 11:37:22;;;;;;;4.85;1.52;;;;;;;;;;4952462;29;20070;-61
2022/08/11 11:39:48;;;;;;;3.83;1.50;;;;;;;;;;4952370;29;20170;-60
2022/08/11 11:42:17;;;;;;;3.25;1.80;;;;;;;;;;4952356;29;20062;-60
2022/08/11 11:44:44;;;;;;;5.57;1.65;;;;;;;;;;4959762;28;20039;-60
2022/08/11 11:47:14;;;;;;;2.13;1.40;;;;;;;;;;5052268;28;20033;-60
2022/08/11 11:49:42;;;;;;;4.90;1.67;;;;;;;;;;5052318;28;20021;-61
2022/08/11 11:52:13;;;;;;;4.00;1.33;;;;;;;;;;5052240;28;20029;-61
2022/08/11 11:54:40;;;;;;;4.32;1.70;;;;;;;;;;5052381;28;20497;-61
2022/08/11 12:02:43;;;;;;;4.25;1.50;;;;;;;;;;4971820;28;20061;-61
2022/08/11 12:05:10;;;;;;;4.15;1.60;;;;;;;;;;4971380;28;20043;-61
2022/08/11 12:10:22;;;;;;;8.55;1.90;;;;;;;;;;4971380;28;20532;-60
2022/08/11 12:15:34;;;;;;;5.70;1.88;;;;;;;;;;4971339;28;20042;-60
2022/08/11 12:18:01;;;;;;;4.72;1.50;;;;;;;;;;4971425;28;20069;-61
2022/08/11 12:20:26;;;;;;;3.50;1.35;;;;;;;;;;4990854;28;20042;-60
2022/08/11 12:28:24;;;;;;;4.18;1.40;;;;;;;;;;4994671;28;20121;-60
2022/08/11 12:30:52;;;;;;;3.80;1.50;;;;;;;;;;4994644;28;20049;-61
2022/08/11 12:33:19;;;;;;;3.83;1.38;;;;;;;;;;4994513;28;20033;-60
2022/08/11 12:35:47;;;;;;;8.85;1.67;;;;;;;;;;5000905;28;20046;-61
2022/08/11 12:38:16;;;;;;;4.00;1.50;;;;;;;;;;5075927;28;20027;-61
2022/08/11 12:46:30;;;;;;;2.88;1.50;;;;;;;;;;5075818;28;20071;-61
2022/08/11 12:51:57;;;;;;;7.07;1.80;;;;;;;;;;5075812;28;20044;-60
2022/08/11 12:54:43;;;;;;;3.60;1.40;;;;;;;;;;5075041;28;20485;-61
2022/08/11 13:05:34;;;;;;;7.03;1.80;;;;;;;;;;5075528;28;20449;-63
2022/08/11 13:08:01;;;;;;;5.88;1.98;;;;;;;;;;5075496;28;20028;-61
2022/08/11 13:13:17;;;;;;;7.13;1.75;;;;;;;;;;5059425;28;20086;-61
2022/08/11 13:15:45;;;;;;;4.88;1.40;;;;;;;;;;5055106;28;20032;-61
2022/08/11 13:18:21;;;;;;;4.35;1.70;;;;;;;;;;5056717;28;20044;-61
2022/08/11 13:20:48;;;;;;;3.20;1.58;;;;;;;;;;5075024;28;20063;-60
2022/08/11 13:23:15;;;;;;;6.00;1.70;;;;;;;;;;5075153;28;20028;-61
2022/08/11 13:25:42;;;;;;;6.95;2.40;;;;;;;;;;5074233;28;20029;-61
2022/08/11 13:28:11;;;;;;;3.60;1.50;;;;;;;;;;5075080;28;20024;-61
2022/08/11 13:33:24;;;;;;;3.40;1.50;;;;;;;;;;5074991;28;20039;-61
2022/08/11 13:35:52;;;;;;;6.80;1.67;;;;;;;;;;5074949;28;20032;-61
2022/08/11 13:38:21;;;;;;;8.40;2.00;;;;;;;;;;5074902;28;20045;-62
2022/08/11 13:40:48;;;;;;;7.10;1.60;;;;;;;;;;5074621;28;20067;-61
2022/08/11 13:43:14;;;;;;;3.17;1.60;;;;;;;;;;5074793;28;20024;-62
2022/08/11 13:45:42;;;;;;;5.95;1.90;;;;;;;;;;5074611;28;20028;-61
2022/08/11 13:48:09;;;;;;;7.68;2.00;;;;;;;;;;5074708;28;20388;-61
2022/08/11 13:53:21;;;;;;;2.92;1.60;;;;;;;;;;5074819;28;20081;-61
2022/08/11 13:55:48;;;;;;;7.97;1.92;;;;;;;;;;5074353;28;20024;-61
2022/08/11 13:58:15;;;;;;;4.97;1.65;;;;;;;;;;5074456;28;20017;-61
2022/08/11 14:00:44;;;;;;;5.97;1.85;;;;;;;;;;5074270;28;20099;-61
2022/08/11 14:03:11;;;;;;;9.02;1.90;;;;;;;;;;5075869;28;20477;-61
2022/08/11 14:05:45;;;;;;;8.85;2.00;;;;;;;;;;5065805;28;20363;-61
2022/08/11 14:08:17;;;;;;;4.95;1.92;;;;;;;;;;5054713;28;20025;-61
2022/08/11 14:10:44;;;;;;;5.85;1.70;;;;;;;;;;5054074;28;20032;-61
2022/08/11 14:16:04;;;;;;;7.13;1.58;;;;;;;;;;5054440;28;20083;-61
2022/08/11 14:18:31;;;;;;;4.60;1.45;;;;;;;;;;5058638;28;20564;-61
2022/08/11 14:23:54;;;;;;;3.78;1.60;;;;;;;;;;5073598;28;20158;-61
2022/08/11 14:26:27;;;;;;;4.95;1.70;;;;;;;;;;5073809;28;20020;-61
2022/08/11 14:29:12;;;;;;;6.53;1.77;;;;;;;;;;5073934;28;20025;-62
2022/08/11 14:31:44;;;;;;;4.45;1.38;;;;;;;;;;5073953;28;20096;-62
2022/08/11 14:34:13;;;;;;;5.43;1.85;;;;;;;;;;5073998;28;20028;-62
2022/08/11 14:36:42;;;;;;;5.18;1.80;;;;;;;;;;5073773;28;20028;-61
2022/08/11 14:39:11;;;;;;;3.33;1.80;;;;;;;;;;5073150;28;20109;-61
2022/08/11 14:47:13;;;;;;;11.00;2.28;;;;;;;;;;5072855;28;20492;-62
2022/08/11 14:49:40;;;;;;;11.43;1.73;;;;;;;;;;5073423;28;20553;-61
2022/08/11 14:52:09;;;;;;;6.88;1.70;;;;;;;;;;5073513;28;20385;-61
2022/08/11 14:57:21;;;;;;;6.65;1.77;;;;;;;;;;5073514;28;20512;-61
2022/08/11 14:59:49;;;;;;;2.42;1.50;;;;;;;;;;5073099;28;20575;-62
2022/08/11 15:05:04;;;;;;;5.80;1.60;;;;;;;;;;5073299;28;20044;-61
2022/08/11 15:07:31;;;;;;;6.18;1.60;;;;;;;;;;5072746;28;20071;-61
2022/08/11 15:10:04;;;;;;;4.53;1.40;;;;;;;;;;5072789;28;20462;-61
2022/08/11 15:12:30;;;;;;;7.28;1.42;;;;;;;;;;5072828;28;20036;-61
2022/08/11 15:17:42;;;;;;;7.82;1.80;;;;;;;;;;5072451;28;20413;-60
2022/08/11 15:25:48;;;;;;;4.50;1.33;;;;;;;;;;5072379;28;20119;-61
2022/08/11 15:39:26;;;;;;;3.75;1.40;;;;;;;;;;5068552;28;20078;-61
2022/08/11 15:47:47;;;;;;;3.97;1.55;;;;;;;;;;5052839;28;20040;-61
2022/08/11 15:50:16;;;;;;;5.85;1.40;;;;;;;;;;5052136;28;20149;-61
2022/08/11 15:52:48;;;;;;;4.90;1.80;;;;;;;;;;5052432;28;20481;-61
2022/08/11 15:55:15;;;;;;;3.85;1.60;;;;;;;;;;5052551;28;20111;-61
2022/08/11 16:05:57;;;;;;;5.15;1.40;;;;;;;;;;5052085;28;20392;-61
2022/08/11 16:08:24;;;;;;;4.00;1.58;;;;;;;;;;5052366;28;20110;-61
2022/08/11 16:10:54;;;;;;;6.18;1.58;;;;;;;;;;5052426;28;20025;-61
2022/08/11 16:16:13;;;;;;;9.32;1.60;;;;;;;;;;5052146;28;20029;-61
2022/08/11 16:18:48;;;;;;;3.88;1.60;;;;;;;;;;5057962;28;20048;-61
2022/08/11 16:21:35;;;;;;;7.32;1.67;;;;;;;;;;5071987;28;20161;-61
2022/08/11 16:24:05;;;;;;;4.25;1.70;;;;;;;;;;5071838;28;20040;-62
2022/08/11 16:26:32;;;;;;;10.13;1.70;;;;;;;;;;5060333;28;20398;-62
2022/08/11 16:29:01;;;;;;;8.75;1.98;;;;;;;;;;5051797;28;20036;-64
2022/08/11 16:31:29;;;;;;;7.15;1.77;;;;;;;;;;5053430;28;20118;-61
2022/08/11 16:33:56;;;;;;;8.18;1.83;;;;;;;;;;5062525;28;20012;-61
2022/08/11 16:39:10;;;;;;;7.80;2.50;;;;;;;;;;5064724;28;20024;-61
2022/08/11 16:47:15;;;;;;;5.05;1.67;;;;;;;;;;5071633;28;20052;-61
2022/08/11 16:49:51;;;;;;;8.63;1.85;;;;;;;;;;5062706;28;20523;-62
2022/08/11 16:52:17;;;;;;;4.95;1.95;;;;;;;;;;5054023;28;20029;-61
2022/08/11 16:54:46;;;;;;;5.15;1.90;;;;;;;;;;5052098;28;20555;-62
2022/08/11 17:00:06;;;;;;;9.68;2.05;;;;;;;;;;5051779;28;20086;-61
2022/08/11 17:13:54;;;;;;;4.78;1.92;;;;;;;;;;5055816;28;20175;-61
2022/08/11 17:16:24;;;;;;;3.83;2.15;;;;;;;;;;5053832;28;20506;-61
2022/08/11 17:18:59;;;;;;;12.27;2.92;;;;;;;;;;5060357;28;20049;-61
2022/08/11 17:21:25;;;;;;;7.32;1.80;;;;;;;;;;5073924;28;20343;-61
2022/08/11 17:23:53;;;;;;;5.57;2.15;;;;;;;;;;5073508;28;20089;-61
2022/08/11 17:26:26;;;;;;;6.63;2.45;;;;;;;;;;5074107;28;20326;-62
2022/08/11 17:28:58;;;;;;;5.75;2.10;;;;;;;;;;5072680;28;20378;-62
2022/08/11 17:36:58;;;;;;;5.82;2.10;;;;;;;;;;5075632;28;20086;-61
2022/08/11 17:39:27;;;;;;;4.53;2.17;;;;;;;;;;5075153;28;20052;-61
2022/08/11 17:50:09;;;;;;;7.18;2.30;;;;;;;;;;5075341;28;20108;-61
2022/08/11 18:00:53;;;;;;;5.53;1.98;;;;;;;;;;5074638;28;20115;-63
2022/08/11 18:03:31;;;;;;;5.93;2.40;;;;;;;;;;5074677;28;20032;-62
2022/08/11 18:06:00;;;;;;;4.95;2.10;;;;;;;;;;5074473;28;20036;-61
